Time;durP1;ratioP1;P1;durP2;ratioP2;P2;SDS_P1;SDS_P2;PMS_P1;PMS_P2;Temp;Humidity;BMP_temperature;BMP_pressure;BME280_temperature;BME280_humidity;BME280_pressure;Samples;Min_cycle;Max_cycle;Signal;HPM_P1;HPM_P2
2022/03/12 00:02:05;;;;;;;15.60;8.17;;;;;;;;;;6201756;23;20375;-53
2022/03/12 00:04:31;;;;;;;15.37;9.30;;;;;;;;;;6202086;23;20363;-52
2022/03/12 00:06:58;;;;;;;13.37;7.87;;;;;;;;;;6202392;23;20935;-53
2022/03/12 00:09:24;;;;;;;15.77;8.33;;;;;;;;;;6200831;23;20459;-53
2022/03/12 00:11:55;;;;;;;8.80;7.33;;;;;;;;;;6200659;23;20431;-52
2022/03/12 00:14:23;;;;;;;14.57;9.57;;;;;;;;;;6201264;23;20407;-53
2022/03/12 00:16:49;;;;;;;15.90;8.87;;;;;;;;;;6199250;23;20442;-51
2022/03/12 00:19:15;;;;;;;12.87;8.40;;;;;;;;;;6204760;23;20859;-51
2022/03/12 00:21:43;;;;;;;19.17;8.77;;;;;;;;;;6202424;23;20367;-53
2022/03/12 00:24:12;;;;;;;17.43;9.43;;;;;;;;;;6200215;23;20556;-52
2022/03/12 00:26:40;;;;;;;14.27;9.37;;;;;;;;;;6201748;23;20371;-52
2022/03/12 00:29:14;;;;;;;15.77;10.00;;;;;;;;;;6200257;23;20406;-53
2022/03/12 00:31:40;;;;;;;17.37;8.80;;;;;;;;;;6201597;23;20367;-53
2022/03/12 00:34:06;;;;;;;12.40;9.03;;;;;;;;;;6200473;23;20379;-53
2022/03/12 00:36:32;;;;;;;11.67;8.10;;;;;;;;;;6200796;23;20501;-52
2022/03/12 00:38:58;;;;;;;12.70;8.13;;;;;;;;;;6200469;23;20455;-51
2022/03/12 00:41:25;;;;;;;9.73;7.47;;;;;;;;;;6202216;23;20392;-52
2022/03/12 00:43:51;;;;;;;12.83;8.70;;;;;;;;;;6202475;23;21058;-52
2022/03/12 00:46:18;;;;;;;16.10;10.30;;;;;;;;;;6201211;23;20832;-52
2022/03/12 00:48:44;;;;;;;13.17;8.97;;;;;;;;;;6202188;23;20368;-53
2022/03/12 00:51:10;;;;;;;15.53;9.63;;;;;;;;;;6201422;23;20387;-52
2022/03/12 00:53:36;;;;;;;15.00;8.27;;;;;;;;;;6203205;23;20391;-51
2022/03/12 00:56:03;;;;;;;15.43;8.10;;;;;;;;;;6201722;23;20407;-51
2022/03/12 00:58:29;;;;;;;13.57;9.23;;;;;;;;;;6200685;23;20455;-53
2022/03/12 01:00:55;;;;;;;18.90;9.30;;;;;;;;;;6202956;23;20368;-52
2022/03/12 01:03:21;;;;;;;14.67;7.90;;;;;;;;;;6201239;23;20385;-51
2022/03/12 01:05:50;;;;;;;11.47;7.70;;;;;;;;;;6202508;23;20382;-53
2022/03/12 01:08:19;;;;;;;13.80;7.70;;;;;;;;;;6202139;23;20379;-52
2022/03/12 01:10:45;;;;;;;11.60;8.00;;;;;;;;;;6203142;23;20380;-52
2022/03/12 01:13:11;;;;;;;17.00;8.33;;;;;;;;;;6200441;23;20474;-51
2022/03/12 01:15:37;;;;;;;13.40;8.60;;;;;;;;;;6201661;23;20485;-51
2022/03/12 01:18:03;;;;;;;12.47;8.23;;;;;;;;;;6201074;23;20431;-51
2022/03/12 01:20:29;;;;;;;14.30;9.77;;;;;;;;;;6202128;23;20381;-52
2022/03/12 01:22:55;;;;;;;11.70;9.27;;;;;;;;;;6201719;23;20881;-52
2022/03/12 01:25:21;;;;;;;10.77;7.70;;;;;;;;;;6201369;23;20402;-53
2022/03/12 01:27:47;;;;;;;13.93;7.80;;;;;;;;;;6201573;23;21137;-53
2022/03/12 01:30:13;;;;;;;10.93;7.70;;;;;;;;;;6201754;23;20150;-52
2022/03/12 01:32:39;;;;;;;12.17;8.53;;;;;;;;;;6201313;23;20463;-52
2022/03/12 01:35:06;;;;;;;10.93;7.60;;;;;;;;;;6201884;23;20153;-52
2022/03/12 01:37:32;;;;;;;15.20;9.10;;;;;;;;;;6201882;23;20431;-52
2022/03/12 01:39:58;;;;;;;12.37;8.13;;;;;;;;;;6201172;23;20881;-52
2022/03/12 01:42:27;;;;;;;9.20;6.80;;;;;;;;;;6200326;23;20363;-52
2022/03/12 01:44:53;;;;;;;11.77;7.80;;;;;;;;;;6201014;23;20367;-52
2022/03/12 01:47:21;;;;;;;13.07;7.97;;;;;;;;;;6201522;23;20379;-52
2022/03/12 01:49:47;;;;;;;13.10;8.13;;;;;;;;;;6200769;23;20421;-53
2022/03/12 01:52:13;;;;;;;8.13;6.80;;;;;;;;;;6201019;23;20367;-51
2022/03/12 01:54:40;;;;;;;14.43;8.87;;;;;;;;;;6199585;23;20941;-53
2022/03/12 01:57:08;;;;;;;13.80;8.87;;;;;;;;;;6199743;23;20605;-51
2022/03/12 01:59:34;;;;;;;12.30;7.70;;;;;;;;;;6201197;23;20375;-52
2022/03/12 02:02:02;;;;;;;10.57;8.13;;;;;;;;;;6200822;23;20371;-51
2022/03/12 02:04:29;;;;;;;8.43;6.90;;;;;;;;;;6201695;23;20375;-51
2022/03/12 02:06:58;;;;;;;31.13;9.20;;;;;;;;;;6200777;23;20966;-51
2022/03/12 02:09:24;;;;;;;15.90;7.80;;;;;;;;;;6200193;23;20387;-53
2022/03/12 02:11:51;;;;;;;9.40;7.10;;;;;;;;;;6202084;23;20392;-51
2022/03/12 02:14:18;;;;;;;10.10;7.40;;;;;;;;;;6200582;23;20376;-52
2022/03/12 02:16:50;;;;;;;11.20;7.47;;;;;;;;;;6201062;23;20435;-53
2022/03/12 02:19:17;;;;;;;10.93;7.90;;;;;;;;;;6201149;23;20418;-52
2022/03/12 02:21:59;;;;;;;12.20;7.70;;;;;;;;;;6200401;23;20387;-52
2022/03/12 02:24:28;;;;;;;14.40;8.20;;;;;;;;;;6198588;23;20475;-52
2022/03/12 02:26:55;;;;;;;14.33;8.07;;;;;;;;;;6200765;23;20374;-52
2022/03/12 02:29:22;;;;;;;9.30;7.87;;;;;;;;;;6203509;23;20453;-53
2022/03/12 02:31:50;;;;;;;14.40;8.10;;;;;;;;;;6203153;23;20371;-52
2022/03/12 02:34:21;;;;;;;18.33;7.50;;;;;;;;;;6203848;23;20490;-52
2022/03/12 02:36:49;;;;;;;12.60;6.70;;;;;;;;;;6204435;23;20457;-52
2022/03/12 02:39:16;;;;;;;13.50;9.50;;;;;;;;;;6204167;23;20383;-53
2022/03/12 02:41:42;;;;;;;10.87;8.17;;;;;;;;;;6203133;23;20367;-51
2022/03/12 02:44:10;;;;;;;11.67;7.20;;;;;;;;;;6203824;23;20393;-52
2022/03/12 02:46:37;;;;;;;13.10;8.47;;;;;;;;;;6203458;23;20380;-52
2022/03/12 02:49:03;;;;;;;10.83;7.20;;;;;;;;;;6204358;23;20371;-53
2022/03/12 02:51:29;;;;;;;18.83;7.53;;;;;;;;;;6200576;23;20379;-52
2022/03/12 02:53:56;;;;;;;12.23;7.20;;;;;;;;;;6203501;23;20351;-52
2022/03/12 02:56:26;;;;;;;14.47;7.77;;;;;;;;;;6205260;23;20513;-52
2022/03/12 02:58:52;;;;;;;10.07;7.83;;;;;;;;;;6203267;23;20411;-53
2022/03/12 03:01:18;;;;;;;10.07;7.50;;;;;;;;;;6205098;23;20382;-52
2022/03/12 03:03:45;;;;;;;10.30;8.10;;;;;;;;;;6206055;23;20482;-53
2022/03/12 03:06:13;;;;;;;14.07;8.13;;;;;;;;;;6203765;23;20380;-51
2022/03/12 03:08:39;;;;;;;13.20;7.80;;;;;;;;;;6206996;23;21033;-52
2022/03/12 03:11:12;;;;;;;9.90;6.63;;;;;;;;;;6205090;23;20415;-53
2022/03/12 03:13:41;;;;;;;9.10;7.40;;;;;;;;;;6206584;23;20379;-54
2022/03/12 03:16:08;;;;;;;12.43;7.83;;;;;;;;;;6205541;23;20419;-52
2022/03/12 03:18:38;;;;;;;11.10;7.20;;;;;;;;;;6206517;23;20458;-53
2022/03/12 03:21:04;;;;;;;16.83;7.97;;;;;;;;;;6207956;23;20368;-51
2022/03/12 03:23:31;;;;;;;13.63;7.10;;;;;;;;;;6207288;23;20379;-52
2022/03/12 03:25:57;;;;;;;11.00;6.60;;;;;;;;;;6207771;23;20376;-52
2022/03/12 03:28:23;;;;;;;14.60;7.63;;;;;;;;;;6206512;23;20930;-56
2022/03/12 03:30:49;;;;;;;12.30;8.10;;;;;;;;;;6207484;23;20371;-53
2022/03/12 03:33:15;;;;;;;12.37;7.57;;;;;;;;;;6204883;23;20708;-52
2022/03/12 03:35:42;;;;;;;9.40;6.97;;;;;;;;;;6205981;23;20379;-53
2022/03/12 03:38:11;;;;;;;10.60;7.77;;;;;;;;;;6202464;23;20446;-54
2022/03/12 03:40:37;;;;;;;13.17;8.20;;;;;;;;;;6203386;23;20498;-54
2022/03/12 03:43:09;;;;;;;9.97;8.17;;;;;;;;;;6205144;23;20445;-52
2022/03/12 03:45:35;;;;;;;10.93;7.93;;;;;;;;;;6208233;23;20375;-52
2022/03/12 03:48:01;;;;;;;10.43;7.20;;;;;;;;;;6203210;23;20435;-51
2022/03/12 03:50:27;;;;;;;11.43;8.03;;;;;;;;;;6203889;23;20382;-51
2022/03/12 03:52:56;;;;;;;9.63;7.30;;;;;;;;;;6203768;23;20363;-52
2022/03/12 03:55:25;;;;;;;12.03;8.30;;;;;;;;;;6203923;23;20743;-52
2022/03/12 03:57:53;;;;;;;13.33;7.23;;;;;;;;;;6201801;23;20435;-52
2022/03/12 04:00:22;;;;;;;13.63;6.53;;;;;;;;;;6202285;23;20367;-52
2022/03/12 04:02:49;;;;;;;13.07;7.27;;;;;;;;;;6202005;23;20383;-52
2022/03/12 04:05:15;;;;;;;12.23;8.00;;;;;;;;;;6203817;23;20360;-51
2022/03/12 04:07:41;;;;;;;12.70;8.17;;;;;;;;;;6203903;23;20375;-52
2022/03/12 04:10:07;;;;;;;11.17;7.80;;;;;;;;;;6202643;23;20371;-52
2022/03/12 04:12:33;;;;;;;15.97;9.20;;;;;;;;;;6199560;23;20437;-53
2022/03/12 04:14:59;;;;;;;14.03;7.87;;;;;;;;;;6200200;23;20474;-51
2022/03/12 04:17:26;;;;;;;9.80;6.50;;;;;;;;;;6201872;23;20962;-53
2022/03/12 04:19:53;;;;;;;11.90;7.10;;;;;;;;;;6202367;23;20399;-52
2022/03/12 04:22:19;;;;;;;10.90;8.00;;;;;;;;;;6201506;23;20375;-52
2022/03/12 04:24:46;;;;;;;8.70;7.20;;;;;;;;;;6202131;23;20399;-53
2022/03/12 04:27:12;;;;;;;16.47;7.17;;;;;;;;;;6200970;23;20406;-52
2022/03/12 04:29:38;;;;;;;11.73;7.07;;;;;;;;;;6201553;23;20376;-54
2022/03/12 04:32:08;;;;;;;12.30;7.70;;;;;;;;;;6202073;23;20372;-53
2022/03/12 04:34:35;;;;;;;12.83;7.70;;;;;;;;;;6199674;23;21005;-53
2022/03/12 04:37:01;;;;;;;9.10;7.23;;;;;;;;;;6203510;23;20570;-53
2022/03/12 04:39:27;;;;;;;10.30;7.03;;;;;;;;;;6203177;23;20524;-52
2022/03/12 04:41:53;;;;;;;10.00;7.23;;;;;;;;;;6200170;23;20857;-52
2022/03/12 04:44:20;;;;;;;9.73;6.90;;;;;;;;;;6201861;23;20152;-53
2022/03/12 04:46:46;;;;;;;14.50;6.90;;;;;;;;;;6200964;23;20376;-52
2022/03/12 04:49:12;;;;;;;18.47;7.00;;;;;;;;;;6202045;23;20386;-52
2022/03/12 04:51:38;;;;;;;9.33;6.70;;;;;;;;;;6200361;23;20380;-52
2022/03/12 04:54:04;;;;;;;13.03;8.40;;;;;;;;;;6201849;23;20142;-54
2022/03/12 04:56:30;;;;;;;13.90;7.07;;;;;;;;;;6200811;23;20504;-52
2022/03/12 04:58:56;;;;;;;11.60;7.57;;;;;;;;;;6200780;23;20382;-52
2022/03/12 05:01:22;;;;;;;10.93;5.97;;;;;;;;;;6199121;23;20437;-52
2022/03/12 05:03:48;;;;;;;13.90;6.70;;;;;;;;;;6201176;23;20380;-53
2022/03/12 05:06:15;;;;;;;10.70;8.07;;;;;;;;;;6200035;23;20397;-53
2022/03/12 05:08:41;;;;;;;11.83;6.90;;;;;;;;;;6200420;23;21305;-53
2022/03/12 05:11:07;;;;;;;12.20;8.10;;;;;;;;;;6202162;23;20383;-52
2022/03/12 05:13:32;;;;;;;17.00;7.43;;;;;;;;;;6201070;23;20375;-52
2022/03/12 05:16:01;;;;;;;10.97;7.90;;;;;;;;;;6200878;23;20399;-52
2022/03/12 05:18:28;;;;;;;15.17;8.57;;;;;;;;;;6200464;23;20388;-52
2022/03/12 05:20:54;;;;;;;10.27;7.00;;;;;;;;;;6202410;23;20962;-52
2022/03/12 05:23:20;;;;;;;10.20;6.37;;;;;;;;;;6201697;23;20872;-53
2022/03/12 05:25:47;;;;;;;11.13;6.87;;;;;;;;;;6199156;23;20393;-52
2022/03/12 05:28:20;;;;;;;10.53;7.90;;;;;;;;;;6200209;23;20246;-51
2022/03/12 05:30:46;;;;;;;12.70;7.57;;;;;;;;;;6201529;23;20860;-53
2022/03/12 05:33:13;;;;;;;11.00;6.37;;;;;;;;;;6201600;23;20380;-53
2022/03/12 05:35:41;;;;;;;8.00;5.93;;;;;;;;;;6202214;23;20391;-53
2022/03/12 05:38:07;;;;;;;8.90;6.60;;;;;;;;;;6199778;23;20447;-52
2022/03/12 05:40:38;;;;;;;12.10;6.80;;;;;;;;;;6202379;23;20979;-52
2022/03/12 05:43:06;;;;;;;9.03;6.87;;;;;;;;;;6200889;23;20363;-53
2022/03/12 05:45:32;;;;;;;13.93;9.13;;;;;;;;;;6201150;23;20403;-53
2022/03/12 05:47:58;;;;;;;12.63;6.77;;;;;;;;;;6198726;23;20388;-53
2022/03/12 05:50:24;;;;;;;10.57;6.67;;;;;;;;;;6199917;23;20372;-53
2022/03/12 05:52:50;;;;;;;7.97;6.53;;;;;;;;;;6199746;23;20167;-53
2022/03/12 05:55:17;;;;;;;9.97;6.73;;;;;;;;;;6199535;23;20363;-53
2022/03/12 05:57:44;;;;;;;9.40;6.87;;;;;;;;;;6198673;23;20431;-54
2022/03/12 06:00:11;;;;;;;9.40;6.13;;;;;;;;;;6201128;23;20430;-54
2022/03/12 06:02:48;;;;;;;11.00;6.60;;;;;;;;;;6199471;23;20459;-54
2022/03/12 06:05:14;;;;;;;11.17;7.67;;;;;;;;;;6197361;23;20371;-54
2022/03/12 06:07:45;;;;;;;10.03;6.43;;;;;;;;;;6195525;23;20754;-53
2022/03/12 06:10:16;;;;;;;10.57;5.40;;;;;;;;;;6198778;23;20422;-54
2022/03/12 06:12:43;;;;;;;10.33;7.13;;;;;;;;;;6200354;23;20378;-54
2022/03/12 06:15:10;;;;;;;13.37;7.30;;;;;;;;;;6200315;23;20375;-53
2022/03/12 06:17:38;;;;;;;9.50;6.63;;;;;;;;;;6199937;23;20438;-54
2022/03/12 06:20:04;;;;;;;9.53;6.70;;;;;;;;;;6199265;23;20368;-54
2022/03/12 06:22:30;;;;;;;13.83;7.63;;;;;;;;;;6196201;23;20379;-53
2022/03/12 06:24:56;;;;;;;8.60;6.10;;;;;;;;;;6197246;23;20987;-53
2022/03/12 06:27:22;;;;;;;9.63;6.27;;;;;;;;;;6197644;23;20471;-54
2022/03/12 06:29:48;;;;;;;10.40;7.63;;;;;;;;;;6195105;23;20383;-54
2022/03/12 06:32:15;;;;;;;12.63;6.40;;;;;;;;;;6197202;23;20376;-53
2022/03/12 06:34:42;;;;;;;12.43;6.40;;;;;;;;;;6200367;23;20476;-54
2022/03/12 06:37:08;;;;;;;9.57;5.80;;;;;;;;;;6200415;23;20497;-54
2022/03/12 06:39:34;;;;;;;8.17;6.77;;;;;;;;;;6202215;23;20371;-54
2022/03/12 06:42:01;;;;;;;18.07;7.37;;;;;;;;;;6200993;23;20466;-54
2022/03/12 06:44:32;;;;;;;9.70;6.50;;;;;;;;;;6200311;23;20372;-54
2022/03/12 06:47:01;;;;;;;9.13;6.77;;;;;;;;;;6197161;23;20367;-53
2022/03/12 06:49:28;;;;;;;8.07;5.77;;;;;;;;;;6197874;23;20532;-54
2022/03/12 06:51:54;;;;;;;7.90;6.53;;;;;;;;;;6196761;23;20473;-54
2022/03/12 06:54:20;;;;;;;10.70;7.00;;;;;;;;;;6197288;23;20383;-53
2022/03/12 06:56:46;;;;;;;18.83;6.20;;;;;;;;;;6197991;23;20435;-53
2022/03/12 06:59:13;;;;;;;10.03;6.30;;;;;;;;;;6201028;23;20375;-53
2022/03/12 07:01:39;;;;;;;9.60;7.50;;;;;;;;;;6201228;23;20402;-52
2022/03/12 07:04:06;;;;;;;10.07;6.63;;;;;;;;;;6198551;23;20853;-53
2022/03/12 07:06:36;;;;;;;9.07;6.30;;;;;;;;;;6202829;23;20372;-53
2022/03/12 07:09:02;;;;;;;10.90;6.90;;;;;;;;;;6199948;23;20467;-53
2022/03/12 07:11:29;;;;;;;11.20;7.27;;;;;;;;;;6194649;23;20364;-57
2022/03/12 07:13:55;;;;;;;8.93;6.90;;;;;;;;;;6195247;23;20371;-54
2022/03/12 07:16:21;;;;;;;12.40;6.87;;;;;;;;;;6194443;23;21085;-54
2022/03/12 07:18:47;;;;;;;14.00;6.93;;;;;;;;;;6194111;23;20542;-54
2022/03/12 07:21:13;;;;;;;12.00;6.63;;;;;;;;;;6192585;23;20145;-53
2022/03/12 07:23:39;;;;;;;19.77;7.53;;;;;;;;;;6198530;23;20383;-54
2022/03/12 07:26:05;;;;;;;9.30;7.00;;;;;;;;;;6201974;23;20375;-54
2022/03/12 07:28:32;;;;;;;9.57;6.70;;;;;;;;;;6202900;23;20402;-54
2022/03/12 07:30:58;;;;;;;11.57;6.10;;;;;;;;;;6202632;23;20406;-54
2022/03/12 07:33:24;;;;;;;11.97;7.53;;;;;;;;;;6202553;23;20384;-53
2022/03/12 07:35:50;;;;;;;8.43;6.60;;;;;;;;;;6202456;23;20442;-54
2022/03/12 07:38:16;;;;;;;11.87;7.30;;;;;;;;;;6202410;23;20431;-54
2022/03/12 07:40:43;;;;;;;13.40;7.53;;;;;;;;;;6202660;23;20195;-54
2022/03/12 07:43:09;;;;;;;9.70;7.00;;;;;;;;;;6200234;23;20585;-53
2022/03/12 07:45:35;;;;;;;10.60;6.97;;;;;;;;;;6202538;23;20386;-52
2022/03/12 07:48:01;;;;;;;9.97;5.70;;;;;;;;;;6199897;23;20893;-51
2022/03/12 07:50:27;;;;;;;11.03;7.07;;;;;;;;;;6197694;23;20790;-53
2022/03/12 07:52:53;;;;;;;10.57;7.50;;;;;;;;;;6196590;23;20379;-53
2022/03/12 07:55:19;;;;;;;8.87;7.07;;;;;;;;;;6202501;23;20774;-53
2022/03/12 07:57:45;;;;;;;8.10;7.07;;;;;;;;;;6202552;23;20521;-52
2022/03/12 08:00:12;;;;;;;9.93;6.87;;;;;;;;;;6203886;23;20375;-52
2022/03/12 08:02:38;;;;;;;8.40;6.50;;;;;;;;;;6203484;23;20384;-52
2022/03/12 08:05:04;;;;;;;19.20;8.70;;;;;;;;;;6201895;23;21171;-52
2022/03/12 08:07:32;;;;;;;10.70;8.40;;;;;;;;;;6200005;23;20390;-52
2022/03/12 08:09:59;;;;;;;8.80;7.80;;;;;;;;;;6201696;23;20376;-53
2022/03/12 08:12:28;;;;;;;11.10;8.27;;;;;;;;;;6198858;23;20910;-52
2022/03/12 08:14:54;;;;;;;9.93;6.93;;;;;;;;;;6201313;23;20388;-52
2022/03/12 08:17:20;;;;;;;14.33;8.37;;;;;;;;;;6201086;23;21047;-52
2022/03/12 08:19:47;;;;;;;11.33;7.80;;;;;;;;;;6201599;23;20430;-51
2022/03/12 08:22:13;;;;;;;10.87;7.30;;;;;;;;;;6200920;23;20394;-52
2022/03/12 08:24:39;;;;;;;13.87;8.30;;;;;;;;;;6199465;23;20948;-53
2022/03/12 08:27:06;;;;;;;11.80;8.00;;;;;;;;;;6189865;23;20380;-53
2022/03/12 08:29:32;;;;;;;11.97;6.97;;;;;;;;;;6188807;23;20448;-54
2022/03/12 08:31:58;;;;;;;14.37;8.90;;;;;;;;;;6187455;23;20372;-54
2022/03/12 08:34:24;;;;;;;11.87;8.03;;;;;;;;;;6194092;23;20376;-54
2022/03/12 08:36:50;;;;;;;11.80;8.57;;;;;;;;;;6196346;23;20426;-54
2022/03/12 08:39:17;;;;;;;12.27;8.37;;;;;;;;;;6189021;23;20872;-54
2022/03/12 08:41:43;;;;;;;14.23;8.63;;;;;;;;;;6191225;23;20969;-54
2022/03/12 08:44:09;;;;;;;14.53;8.33;;;;;;;;;;6192051;23;20372;-52
2022/03/12 08:46:36;;;;;;;11.93;8.50;;;;;;;;;;6189826;23;20384;-53
2022/03/12 08:49:03;;;;;;;13.20;8.23;;;;;;;;;;6193647;23;20384;-53
2022/03/12 08:51:29;;;;;;;13.10;8.83;;;;;;;;;;6194033;23;20388;-53
2022/03/12 08:53:55;;;;;;;15.37;9.97;;;;;;;;;;6194333;23;20432;-54
2022/03/12 08:56:21;;;;;;;32.43;21.67;;;;;;;;;;6195776;23;20405;-54
2022/03/12 08:58:47;;;;;;;16.87;12.90;;;;;;;;;;6190253;23;20435;-54
2022/03/12 09:01:13;;;;;;;18.40;11.17;;;;;;;;;;6196045;23;21213;-54
2022/03/12 09:03:39;;;;;;;14.90;10.30;;;;;;;;;;6201225;23;20788;-54
2022/03/12 09:06:07;;;;;;;11.97;8.90;;;;;;;;;;6201718;23;20470;-55
2022/03/12 09:08:33;;;;;;;13.50;8.93;;;;;;;;;;6199402;23;20382;-54
2022/03/12 09:10:59;;;;;;;15.43;11.07;;;;;;;;;;6200488;23;20359;-54
2022/03/12 09:13:25;;;;;;;15.53;10.63;;;;;;;;;;6199433;23;20394;-55
2022/03/12 09:15:51;;;;;;;13.73;9.17;;;;;;;;;;6202495;23;20356;-55
2022/03/12 09:18:17;;;;;;;13.63;8.50;;;;;;;;;;6203603;23;20858;-55
2022/03/12 09:20:47;;;;;;;13.37;10.60;;;;;;;;;;6201010;23;20474;-54
2022/03/12 09:23:16;;;;;;;15.93;12.33;;;;;;;;;;6200444;23;20463;-54
2022/03/12 09:25:42;;;;;;;21.93;15.93;;;;;;;;;;6202335;23;20735;-55
2022/03/12 09:28:09;;;;;;;19.73;12.63;;;;;;;;;;6199715;23;20387;-55
2022/03/12 09:30:35;;;;;;;13.13;10.40;;;;;;;;;;6202244;23;20398;-54
2022/03/12 09:33:01;;;;;;;13.10;9.07;;;;;;;;;;6201670;23;20376;-55
2022/03/12 09:35:28;;;;;;;11.90;10.60;;;;;;;;;;6202896;23;20394;-56
2022/03/12 09:37:55;;;;;;;16.50;11.90;;;;;;;;;;6200359;23;20427;-55
2022/03/12 09:40:21;;;;;;;13.77;10.03;;;;;;;;;;6200575;23;20403;-54
2022/03/12 09:42:47;;;;;;;24.23;10.27;;;;;;;;;;6199083;23;20372;-55
2022/03/12 09:45:13;;;;;;;16.13;10.70;;;;;;;;;;6201448;23;20410;-55
2022/03/12 09:47:39;;;;;;;16.70;9.97;;;;;;;;;;6200153;23;20894;-53
2022/03/12 09:50:06;;;;;;;19.73;9.90;;;;;;;;;;6202208;23;20434;-55
2022/03/12 09:52:32;;;;;;;12.60;9.67;;;;;;;;;;6200281;23;20414;-57
2022/03/12 09:54:58;;;;;;;14.57;10.50;;;;;;;;;;6203184;23;20384;-54
2022/03/12 09:57:24;;;;;;;15.13;10.37;;;;;;;;;;6201546;23;20431;-54
2022/03/12 09:59:50;;;;;;;15.93;9.70;;;;;;;;;;6202079;23;20455;-54
2022/03/12 10:02:16;;;;;;;13.10;9.17;;;;;;;;;;6200546;23;20372;-54
2022/03/12 10:04:42;;;;;;;13.83;9.50;;;;;;;;;;6200079;23;20386;-55
2022/03/12 10:07:08;;;;;;;14.93;10.20;;;;;;;;;;6199924;23;21299;-54
2022/03/12 10:09:35;;;;;;;15.00;10.00;;;;;;;;;;6201313;23;21177;-55
2022/03/12 10:12:01;;;;;;;12.20;10.10;;;;;;;;;;6208497;23;20368;-54
2022/03/12 10:14:27;;;;;;;11.90;9.07;;;;;;;;;;6203859;23;20388;-54
2022/03/12 10:16:53;;;;;;;13.93;9.37;;;;;;;;;;6197390;23;20447;-54
2022/03/12 10:19:19;;;;;;;16.90;10.37;;;;;;;;;;6201832;23;20371;-55
2022/03/12 10:21:45;;;;;;;14.80;10.50;;;;;;;;;;6201619;23;20767;-54
2022/03/12 10:24:14;;;;;;;12.17;8.80;;;;;;;;;;6201737;23;20372;-54
2022/03/12 10:26:42;;;;;;;13.90;10.23;;;;;;;;;;6203005;23;20842;-54
2022/03/12 10:29:09;;;;;;;14.97;9.33;;;;;;;;;;6202013;23;20430;-53
2022/03/12 10:31:35;;;;;;;17.00;9.90;;;;;;;;;;6203722;23;20375;-54
2022/03/12 10:34:20;;;;;;;14.10;9.63;;;;;;;;;;6204572;23;20870;-54
2022/03/12 10:36:47;;;;;;;19.37;10.70;;;;;;;;;;6202266;23;20930;-54
2022/03/12 10:39:13;;;;;;;13.20;9.10;;;;;;;;;;6202506;23;20371;-54
2022/03/12 10:41:41;;;;;;;14.10;9.10;;;;;;;;;;6201096;23;20707;-55
2022/03/12 10:44:07;;;;;;;14.60;8.83;;;;;;;;;;6200328;23;20379;-55
2022/03/12 10:46:34;;;;;;;14.63;9.43;;;;;;;;;;6201720;23;20518;-54
2022/03/12 10:49:02;;;;;;;11.87;9.30;;;;;;;;;;6202867;23;20367;-54
2022/03/12 10:51:32;;;;;;;14.80;10.57;;;;;;;;;;6203523;23;20383;-55
2022/03/12 10:54:07;;;;;;;15.93;9.20;;;;;;;;;;6201027;23;20430;-54
2022/03/12 10:56:42;;;;;;;14.10;9.67;;;;;;;;;;6200135;23;20418;-54
2022/03/12 10:59:21;;;;;;;13.90;10.07;;;;;;;;;;6202031;23;20895;-53
2022/03/12 11:01:54;;;;;;;18.60;11.00;;;;;;;;;;6202206;23;20866;-53
2022/03/12 11:04:34;;;;;;;16.93;9.23;;;;;;;;;;6201875;23;20387;-52
2022/03/12 11:07:01;;;;;;;13.10;8.73;;;;;;;;;;6201655;23;20410;-53
2022/03/12 11:09:37;;;;;;;15.47;10.17;;;;;;;;;;6202475;23;20394;-52
2022/03/12 11:12:06;;;;;;;15.10;9.17;;;;;;;;;;6202334;23;20371;-53
2022/03/12 11:14:32;;;;;;;17.20;10.10;;;;;;;;;;6204283;23;20371;-53
2022/03/12 11:16:58;;;;;;;17.07;9.30;;;;;;;;;;6205830;23;21092;-53
2022/03/12 11:19:37;;;;;;;15.53;9.80;;;;;;;;;;6207444;23;20369;-54
2022/03/12 11:22:12;;;;;;;14.77;9.50;;;;;;;;;;6203054;23;20384;-53
2022/03/12 11:24:52;;;;;;;12.57;8.90;;;;;;;;;;6198158;23;20696;-51
2022/03/12 11:27:28;;;;;;;13.40;9.73;;;;;;;;;;6198062;23;20399;-52
2022/03/12 11:30:07;;;;;;;12.40;8.87;;;;;;;;;;6197652;23;20384;-53
2022/03/12 11:32:35;;;;;;;15.77;10.60;;;;;;;;;;6201225;23;20376;-52
2022/03/12 11:35:02;;;;;;;17.83;9.97;;;;;;;;;;6206811;23;20371;-52
2022/03/12 11:37:28;;;;;;;15.03;9.47;;;;;;;;;;6206993;23;20458;-52
2022/03/12 11:39:59;;;;;;;12.33;8.00;;;;;;;;;;6207154;23;20368;-53
2022/03/12 11:42:26;;;;;;;10.77;9.07;;;;;;;;;;6203106;23;20701;-52
2022/03/12 11:44:56;;;;;;;13.20;10.60;;;;;;;;;;6204738;23;20368;-53
2022/03/12 11:47:22;;;;;;;14.17;9.90;;;;;;;;;;6179443;23;20398;-52
2022/03/12 11:49:48;;;;;;;13.37;9.83;;;;;;;;;;6205301;23;20382;-52
2022/03/12 11:52:16;;;;;;;12.93;8.70;;;;;;;;;;6204798;23;21016;-52
2022/03/12 11:54:43;;;;;;;10.27;9.00;;;;;;;;;;6205848;23;21238;-53
2022/03/12 11:57:09;;;;;;;12.80;10.63;;;;;;;;;;6203899;23;20449;-53
2022/03/12 11:59:35;;;;;;;13.27;10.17;;;;;;;;;;6201854;23;20375;-52
2022/03/12 12:02:35;;;;;;;15.23;10.33;;;;;;;;;;6202505;23;20546;-55
2022/03/12 12:05:13;;;;;;;10.70;9.43;;;;;;;;;;6204577;23;20614;-52
2022/03/12 12:07:41;;;;;;;13.53;10.60;;;;;;;;;;6204783;23;20383;-52
2022/03/12 12:10:07;;;;;;;13.27;10.00;;;;;;;;;;6204042;23;20415;-52
2022/03/12 12:12:34;;;;;;;17.03;9.80;;;;;;;;;;6200773;23;20788;-52
2022/03/12 12:15:02;;;;;;;9.00;6.90;;;;;;;;;;6203292;23;20391;-53
2022/03/12 12:17:30;;;;;;;11.63;7.40;;;;;;;;;;6202452;23;20847;-53
2022/03/12 12:19:56;;;;;;;10.43;9.00;;;;;;;;;;6199934;23;20470;-54
2022/03/12 12:22:22;;;;;;;14.00;9.63;;;;;;;;;;6203061;23;20409;-53
2022/03/12 12:24:51;;;;;;;18.67;10.40;;;;;;;;;;6198303;23;20145;-53
2022/03/12 12:27:19;;;;;;;14.33;11.03;;;;;;;;;;6201296;23;20382;-53
2022/03/12 12:29:54;;;;;;;15.77;9.60;;;;;;;;;;6199923;23;20399;-53
2022/03/12 12:32:23;;;;;;;13.87;10.07;;;;;;;;;;6198416;23;20370;-53
2022/03/12 12:35:05;;;;;;;13.90;9.70;;;;;;;;;;6200416;23;20877;-53
2022/03/12 12:37:46;;;;;;;11.67;9.50;;;;;;;;;;6201618;23;20435;-53
2022/03/12 12:40:19;;;;;;;13.37;10.17;;;;;;;;;;6202338;23;20371;-52
2022/03/12 12:42:45;;;;;;;14.17;10.13;;;;;;;;;;6198720;23;20371;-54
2022/03/12 12:45:14;;;;;;;12.70;8.77;;;;;;;;;;6201258;23;20395;-53
2022/03/12 12:47:40;;;;;;;11.70;9.83;;;;;;;;;;6200833;23;20372;-53
2022/03/12 12:50:07;;;;;;;14.57;9.97;;;;;;;;;;6201037;23;20806;-54
2022/03/12 12:52:34;;;;;;;15.60;9.10;;;;;;;;;;6197018;23;20386;-55
2022/03/12 12:55:01;;;;;;;8.53;7.23;;;;;;;;;;6202561;23;20394;-53
2022/03/12 12:57:39;;;;;;;8.07;7.00;;;;;;;;;;6198737;23;20435;-54
2022/03/12 13:00:15;;;;;;;9.03;7.60;;;;;;;;;;6199399;23;20784;-54
2022/03/12 13:02:45;;;;;;;10.57;9.47;;;;;;;;;;6197220;23;20466;-53
2022/03/12 13:05:14;;;;;;;13.90;9.13;;;;;;;;;;6197647;23;20376;-53
2022/03/12 13:08:02;;;;;;;11.03;8.73;;;;;;;;;;6197703;23;21167;-54
2022/03/12 13:10:28;;;;;;;12.00;8.83;;;;;;;;;;6200838;23;20376;-53
2022/03/12 13:13:10;;;;;;;9.43;8.43;;;;;;;;;;6198521;23;20375;-54
2022/03/12 13:15:37;;;;;;;12.77;9.47;;;;;;;;;;6199404;23;20371;-54
2022/03/12 13:18:22;;;;;;;9.27;7.77;;;;;;;;;;6204126;23;20427;-54
2022/03/12 13:20:48;;;;;;;11.33;7.57;;;;;;;;;;6200682;23;20858;-54
2022/03/12 13:23:19;;;;;;;11.50;8.67;;;;;;;;;;6200218;23;20371;-54
2022/03/12 13:25:54;;;;;;;12.83;7.53;;;;;;;;;;6199771;23;20376;-52
2022/03/12 13:28:41;;;;;;;10.63;8.13;;;;;;;;;;6200254;23;20442;-53
2022/03/12 13:31:17;;;;;;;9.30;7.47;;;;;;;;;;6202116;23;20384;-53
2022/03/12 13:33:44;;;;;;;8.00;7.20;;;;;;;;;;6199784;23;20371;-52
2022/03/12 13:36:40;;;;;;;11.93;7.40;;;;;;;;;;6200365;23;20367;-52
2022/03/12 13:39:06;;;;;;;8.40;6.87;;;;;;;;;;6181206;23;20391;-52
2022/03/12 13:41:32;;;;;;;12.43;7.03;;;;;;;;;;6197240;23;20921;-53
2022/03/12 13:43:58;;;;;;;9.30;7.97;;;;;;;;;;6198208;23;20360;-52
2022/03/12 13:46:28;;;;;;;9.13;7.00;;;;;;;;;;6198799;23;20379;-52
2022/03/12 13:48:58;;;;;;;9.13;6.80;;;;;;;;;;6199576;23;20376;-53
2022/03/12 13:51:24;;;;;;;9.07;6.57;;;;;;;;;;6200277;23;21312;-53
2022/03/12 13:53:56;;;;;;;12.40;7.00;;;;;;;;;;6204588;23;20749;-54
2022/03/12 13:56:24;;;;;;;9.40;6.60;;;;;;;;;;6204563;23;20418;-52
2022/03/12 13:58:50;;;;;;;8.50;6.53;;;;;;;;;;6199520;23;20386;-53
2022/03/12 14:01:33;;;;;;;7.10;6.40;;;;;;;;;;6203328;23;20401;-54
2022/03/12 14:03:59;;;;;;;9.67;7.77;;;;;;;;;;6200796;23;20406;-53
2022/03/12 14:06:30;;;;;;;8.20;6.13;;;;;;;;;;6203504;23;20408;-51
2022/03/12 14:08:56;;;;;;;9.77;7.07;;;;;;;;;;6204221;23;20380;-56
2022/03/12 14:11:34;;;;;;;8.87;6.60;;;;;;;;;;6204054;23;20435;-56
2022/03/12 14:14:06;;;;;;;7.57;6.47;;;;;;;;;;6199829;23;20387;-52
2022/03/12 14:16:36;;;;;;;9.27;6.07;;;;;;;;;;6201803;23;20387;-52
2022/03/12 14:19:02;;;;;;;10.10;7.10;;;;;;;;;;6202505;23;20372;-52
2022/03/12 14:21:42;;;;;;;10.00;7.27;;;;;;;;;;6200829;23;20518;-56
2022/03/12 14:24:11;;;;;;;8.90;6.83;;;;;;;;;;6201796;23;20383;-52
2022/03/12 14:26:44;;;;;;;8.00;6.33;;;;;;;;;;6204284;23;20403;-52
2022/03/12 14:29:10;;;;;;;10.83;7.70;;;;;;;;;;6201851;23;20359;-52
2022/03/12 14:31:39;;;;;;;10.07;7.10;;;;;;;;;;6202049;23;20397;-53
2022/03/12 14:34:05;;;;;;;7.70;6.00;;;;;;;;;;6209182;23;20693;-54
2022/03/12 14:36:35;;;;;;;11.70;7.50;;;;;;;;;;6208543;23;20379;-53